createdAt,value
2019-05-14T00:00:52.475Z,8.60
2019-05-14T00:01:52.328Z,8.60
2019-05-14T00:02:52.320Z,8.74
2019-05-14T00:03:52.386Z,8.85
2019-05-14T00:04:52.295Z,8.77
2019-05-14T00:05:52.288Z,8.57
2019-05-14T00:06:52.321Z,8.60
2019-05-14T00:07:52.282Z,8.47
2019-05-14T00:08:52.404Z,8.46
2019-05-14T00:09:52.320Z,8.55
2019-05-14T00:10:52.303Z,8.56
2019-05-14T00:11:52.220Z,8.52
2019-05-14T00:12:52.278Z,8.56
2019-05-14T00:13:52.250Z,8.68
2019-05-14T00:14:52.185Z,8.72
2019-05-14T00:15:52.387Z,8.72
2019-05-14T00:16:52.160Z,8.88
2019-05-14T00:17:52.419Z,8.92
2019-05-14T00:18:52.186Z,8.93
2019-05-14T00:20:05.979Z,8.93
2019-05-14T00:20:53.116Z,9.01
2019-05-14T00:21:52.103Z,9.03
2019-05-14T00:22:52.299Z,9.04
2019-05-14T00:23:52.133Z,9.16
2019-05-14T00:24:52.201Z,9.12
2019-05-14T00:25:52.427Z,9.01
2019-05-14T00:26:52.099Z,8.92
2019-05-14T00:27:52.085Z,8.88
2019-05-14T00:28:52.028Z,8.81
2019-05-14T00:29:52.048Z,8.93
2019-05-14T00:30:52.572Z,8.95
2019-05-14T00:31:51.994Z,8.96
2019-05-14T00:32:52.245Z,9.01
2019-05-14T00:33:51.966Z,9.03
2019-05-14T00:34:51.990Z,9.08
2019-05-14T00:35:51.961Z,9.01
2019-05-14T00:36:52.542Z,9.06
2019-05-14T00:37:52.224Z,9.08
2019-05-14T00:38:51.918Z,9.08
2019-05-14T00:39:52.279Z,8.90
2019-05-14T00:40:51.904Z,8.81
2019-05-14T00:41:51.879Z,8.77
2019-05-14T00:42:53.264Z,8.72
2019-05-14T00:43:51.903Z,8.75
2019-05-14T00:44:57.722Z,8.88
2019-05-14T00:45:52.831Z,8.85
2019-05-14T00:46:51.863Z,8.74
2019-05-14T00:47:52.526Z,8.75
2019-05-14T00:48:51.800Z,8.67
2019-05-14T00:49:51.990Z,8.74
2019-05-14T00:50:51.878Z,8.74
2019-05-14T00:51:52.072Z,8.83
2019-05-14T00:52:51.879Z,8.85
2019-05-14T00:53:51.791Z,8.89
2019-05-14T00:54:52.369Z,8.89
2019-05-14T00:55:51.840Z,8.96
2019-05-14T00:56:52.249Z,8.95
2019-05-14T00:57:52.164Z,8.88
2019-05-14T00:58:52.246Z,8.93
2019-05-14T00:59:52.290Z,8.93
2019-05-14T01:00:52.494Z,8.93
2019-05-14T01:01:51.801Z,8.98
2019-05-14T01:02:51.984Z,8.95
2019-05-14T01:03:52.157Z,8.92
2019-05-14T01:04:51.841Z,8.81
2019-05-14T01:05:52.388Z,8.74
2019-05-14T01:06:51.648Z,8.75
2019-05-14T01:07:51.641Z,8.68
2019-05-14T01:08:51.959Z,8.62
2019-05-14T01:09:52.378Z,8.74
2019-05-14T01:10:51.605Z,8.78
2019-05-14T01:11:51.546Z,8.85
2019-05-14T01:12:52.051Z,8.83
2019-05-14T01:13:52.240Z,8.86
2019-05-14T01:15:05.650Z,8.78
2019-05-14T01:15:52.557Z,8.71
2019-05-14T01:16:51.534Z,8.78
2019-05-14T01:17:51.760Z,8.88
2019-05-14T01:18:51.495Z,8.86
2019-05-14T01:19:51.502Z,8.88
2019-05-14T01:20:52.069Z,8.85
2019-05-14T01:21:51.487Z,8.88
2019-05-14T01:22:51.758Z,8.75
2019-05-14T01:23:51.540Z,8.74
2019-05-14T01:24:52.259Z,8.77
2019-05-14T01:25:51.823Z,8.77
2019-05-14T01:26:52.237Z,8.65
2019-05-14T01:27:51.908Z,8.65
2019-05-14T01:28:51.573Z,8.65
2019-05-14T01:29:51.589Z,8.57
2019-05-14T01:30:52.016Z,8.50
2019-05-14T01:31:52.050Z,8.44
2019-05-14T01:32:51.392Z,8.44
2019-05-14T01:33:51.643Z,8.55
2019-05-14T01:34:52.220Z,8.47
2019-05-14T01:35:51.636Z,8.55
2019-05-14T01:36:52.930Z,8.44
2019-05-14T01:37:52.187Z,8.39
2019-05-14T01:38:51.488Z,8.24
2019-05-14T01:39:52.084Z,8.29
2019-05-14T01:40:52.368Z,8.23
2019-05-14T01:41:51.735Z,8.24
2019-05-14T01:42:52.304Z,8.31
2019-05-14T01:43:51.439Z,8.31
2019-05-14T01:44:52.025Z,8.26
2019-05-14T01:45:52.360Z,8.10
2019-05-14T01:46:51.360Z,8.14
2019-05-14T01:47:52.083Z,7.94
2019-05-14T01:48:52.116Z,7.91
2019-05-14T01:49:51.674Z,7.95
2019-05-14T01:50:52.017Z,7.78
2019-05-14T01:51:51.303Z,7.91
2019-05-14T01:52:51.985Z,7.86
2019-05-14T01:53:52.102Z,7.81
2019-05-14T01:54:51.681Z,7.78
2019-05-14T01:55:51.951Z,7.77
2019-05-14T01:56:51.616Z,7.88
2019-05-14T01:57:51.827Z,7.87
2019-05-14T01:58:52.249Z,7.87
2019-05-14T01:59:51.678Z,7.83
2019-05-14T02:00:52.291Z,7.78
2019-05-14T02:01:51.744Z,7.94
2019-05-14T02:02:52.444Z,7.80
2019-05-14T02:03:51.830Z,7.77
2019-05-14T02:04:51.424Z,7.81
2019-05-14T02:05:52.131Z,7.68
2019-05-14T02:06:51.463Z,7.60
2019-05-14T02:07:52.586Z,7.62
2019-05-14T02:08:51.533Z,7.57
2019-05-14T02:09:51.865Z,7.62
2019-05-14T02:10:52.667Z,7.64
2019-05-14T02:11:51.849Z,7.66
2019-05-14T02:12:51.600Z,7.62
2019-05-14T02:13:51.896Z,7.74
2019-05-14T02:14:51.294Z,7.66
2019-05-14T02:15:51.974Z,7.62
2019-05-14T02:16:51.267Z,7.74
2019-05-14T02:17:51.887Z,7.69
2019-05-14T02:18:52.228Z,7.66
2019-05-14T02:19:51.546Z,7.60
2019-05-14T02:20:52.108Z,7.58
2019-05-14T02:21:51.471Z,7.68
2019-05-14T02:22:52.416Z,7.62
2019-05-14T02:23:51.365Z,7.60
2019-05-14T02:24:51.920Z,7.52
2019-05-14T02:25:51.806Z,7.46
2019-05-14T02:26:51.446Z,7.46
2019-05-14T02:27:51.960Z,7.33
2019-05-14T02:28:51.411Z,7.31
2019-05-14T02:29:51.856Z,7.24
2019-05-14T02:30:57.429Z,7.13
2019-05-14T02:31:51.701Z,7.10
2019-05-14T02:32:50.646Z,7.01
2019-05-14T02:33:50.845Z,6.85
2019-05-14T02:34:50.632Z,6.86
2019-05-14T02:35:50.621Z,6.79
2019-05-14T02:36:50.647Z,6.63
2019-05-14T02:37:50.762Z,6.63
2019-05-14T02:38:50.582Z,6.50
2019-05-14T02:39:50.572Z,6.47
2019-05-14T02:40:50.552Z,6.52
2019-05-14T02:41:50.561Z,6.46
2019-05-14T02:42:50.587Z,6.57
2019-05-14T02:43:50.666Z,6.56
2019-05-14T02:44:50.522Z,6.52
2019-05-14T02:46:09.740Z,6.47
2019-05-14T02:46:51.503Z,6.46
2019-05-14T02:47:50.684Z,6.53
2019-05-14T02:48:50.473Z,6.55
2019-05-14T02:49:50.529Z,6.46
2019-05-14T02:50:50.460Z,6.53
2019-05-14T02:51:50.773Z,6.50
2019-05-14T02:52:50.463Z,6.45
2019-05-14T02:53:50.444Z,6.47
2019-05-14T02:54:50.425Z,6.40
2019-05-14T02:55:50.410Z,6.46
2019-05-14T02:56:50.407Z,6.40
2019-05-14T02:57:50.454Z,6.38
2019-05-14T02:58:50.374Z,6.32
2019-05-14T02:59:50.599Z,6.45
2019-05-14T03:00:50.358Z,6.46
2019-05-14T03:01:50.607Z,6.32
2019-05-14T03:02:50.334Z,6.37
2019-05-14T03:03:50.321Z,6.24
2019-05-14T03:04:50.294Z,6.35
2019-05-14T03:05:50.329Z,6.24
2019-05-14T03:06:50.293Z,6.21
2019-05-14T03:07:50.381Z,6.19
2019-05-14T03:08:50.261Z,6.16
2019-05-14T03:09:50.542Z,6.28
2019-05-14T03:10:50.814Z,6.16
2019-05-14T03:11:50.215Z,6.21
2019-05-14T03:12:50.564Z,6.19
2019-05-14T03:13:50.234Z,6.31
2019-05-14T03:14:50.338Z,6.32
2019-05-14T03:15:50.335Z,6.38
2019-05-14T03:16:50.183Z,6.42
2019-05-14T03:17:50.188Z,6.42
2019-05-14T03:18:50.614Z,6.50
2019-05-14T03:19:50.132Z,6.55
2019-05-14T03:20:50.568Z,6.49
2019-05-14T03:21:50.499Z,6.47
2019-05-14T03:23:02.726Z,6.49
2019-05-14T03:23:51.134Z,6.27
2019-05-14T03:24:50.526Z,6.24
2019-05-14T03:25:50.075Z,6.21
2019-05-14T03:26:50.333Z,5.95
2019-05-14T03:27:50.073Z,5.84
2019-05-14T03:28:50.184Z,5.76
2019-05-14T03:29:50.384Z,5.61
2019-05-14T03:30:52.210Z,5.57
2019-05-14T03:31:52.743Z,5.50
2019-05-14T03:32:52.971Z,5.43
2019-05-14T03:33:52.581Z,5.37
2019-05-14T03:34:53.248Z,5.39
2019-05-14T03:35:58.134Z,5.34
2019-05-14T03:36:53.268Z,5.25
2019-05-14T03:37:50.091Z,5.24
2019-05-14T03:38:50.389Z,5.32
2019-05-14T03:39:49.914Z,5.30
2019-05-14T03:40:49.893Z,5.29
2019-05-14T03:41:50.235Z,5.37
2019-05-14T03:42:49.922Z,5.34
2019-05-14T03:43:49.878Z,5.52
2019-05-14T03:44:49.853Z,5.54
2019-05-14T03:45:49.934Z,5.57
2019-05-14T03:46:55.199Z,5.50
2019-05-14T03:47:50.922Z,5.39
2019-05-14T03:48:49.806Z,5.36
2019-05-14T03:49:50.173Z,5.34
2019-05-14T03:50:49.911Z,5.36
2019-05-14T03:51:50.043Z,5.32
2019-05-14T03:52:50.194Z,5.41
2019-05-14T03:54:01.065Z,5.27
2019-05-14T03:54:50.739Z,5.24
2019-05-14T03:55:50.643Z,5.16
2019-05-14T03:56:49.994Z,5.22
2019-05-14T03:57:50.211Z,5.06
2019-05-14T03:58:49.737Z,5.12
2019-05-14T03:59:50.245Z,5.06
2019-05-14T04:00:50.571Z,4.94
2019-05-14T04:01:51.195Z,4.98
2019-05-14T04:02:49.655Z,5.04
2019-05-14T04:03:50.567Z,5.04
2019-05-14T04:04:50.478Z,5.14
2019-05-14T04:05:50.071Z,5.04
2019-05-14T04:06:49.972Z,5.12
2019-05-14T04:07:50.491Z,5.11
2019-05-14T04:08:49.895Z,5.14
2019-05-14T04:09:49.756Z,5.15
2019-05-14T04:10:54.050Z,5.15
2019-05-14T04:11:50.293Z,5.18
2019-05-14T04:12:49.550Z,5.22
2019-05-14T04:13:49.911Z,5.24
2019-05-14T04:14:50.363Z,5.27
2019-05-14T04:15:49.954Z,5.34
2019-05-14T04:17:03.943Z,5.37
2019-05-14T04:17:50.536Z,5.27
2019-05-14T04:18:50.422Z,5.32
2019-05-14T04:19:50.090Z,5.22
2019-05-14T04:20:50.236Z,5.22
2019-05-14T04:21:49.459Z,5.30
2019-05-14T04:22:50.238Z,5.36
2019-05-14T04:23:51.070Z,5.25
2019-05-14T04:24:49.975Z,5.19
2019-05-14T04:25:50.000Z,5.19
2019-05-14T04:27:01.746Z,5.30
2019-05-14T04:27:50.394Z,5.34
2019-05-14T04:28:50.042Z,5.29
2019-05-14T04:29:49.823Z,5.30
2019-05-14T04:30:49.575Z,5.36
2019-05-14T04:31:50.216Z,5.54
2019-05-14T04:32:50.513Z,5.61
2019-05-14T04:33:50.234Z,5.66
2019-05-14T04:34:50.035Z,5.76
2019-05-14T04:35:49.383Z,5.76
2019-05-14T04:36:50.520Z,5.80
2019-05-14T04:37:49.763Z,5.87
2019-05-14T04:38:54.186Z,5.97
2019-05-14T04:39:50.793Z,5.94
2019-05-14T04:40:49.605Z,6.03
2019-05-14T04:41:49.914Z,6.12
2019-05-14T04:42:50.421Z,6.12
2019-05-14T04:43:50.139Z,6.21
2019-05-14T04:44:50.397Z,6.21
2019-05-14T04:45:49.888Z,6.25
2019-05-14T04:46:49.603Z,6.18
2019-05-14T04:47:49.997Z,6.28
2019-05-14T04:48:50.690Z,6.43
2019-05-14T04:49:50.535Z,6.38
2019-05-14T04:50:49.911Z,6.35
2019-05-14T04:51:50.254Z,6.43
2019-05-14T04:52:49.639Z,6.40
2019-05-14T04:53:50.155Z,6.49
2019-05-14T04:54:50.193Z,6.43
2019-05-14T04:55:49.546Z,6.45
2019-05-14T04:56:50.717Z,6.45
2019-05-14T04:57:50.122Z,6.49
2019-05-14T04:58:49.907Z,6.53
2019-05-14T04:59:49.489Z,6.55
2019-05-14T05:00:49.899Z,6.50
2019-05-14T05:01:49.608Z,6.55
2019-05-14T05:02:49.959Z,6.56
2019-05-14T05:03:50.374Z,6.47
2019-05-14T05:04:50.635Z,6.52
2019-05-14T05:05:50.023Z,6.52
2019-05-14T05:06:49.907Z,6.61
2019-05-14T05:07:49.430Z,6.57
2019-05-14T05:08:49.705Z,6.73
2019-05-14T05:09:50.304Z,6.71
2019-05-14T05:10:49.630Z,6.82
2019-05-14T05:11:49.810Z,6.79
2019-05-14T05:12:49.454Z,6.83
2019-05-14T05:13:49.027Z,6.86
2019-05-14T05:14:49.445Z,6.86
2019-05-14T05:15:48.915Z,6.85
2019-05-14T05:16:49.159Z,6.96
2019-05-14T05:17:52.889Z,7.03
2019-05-14T05:18:49.426Z,7.08
2019-05-14T05:19:51.516Z,7.11
2019-05-14T05:20:50.481Z,7.16
2019-05-14T05:21:48.787Z,7.10
2019-05-14T05:22:48.774Z,7.07
2019-05-14T05:23:49.380Z,7.21
2019-05-14T05:24:48.815Z,7.18
2019-05-14T05:25:49.123Z,7.21
2019-05-14T05:26:48.769Z,7.26
2019-05-14T05:27:48.886Z,7.26
2019-05-14T05:29:02.873Z,7.33
2019-05-14T05:29:49.752Z,7.26
2019-05-14T05:30:49.182Z,7.16
2019-05-14T05:31:48.944Z,7.26
2019-05-14T05:32:49.428Z,7.15
2019-05-14T05:33:49.206Z,7.22
2019-05-14T05:34:48.640Z,7.42
2019-05-14T05:35:48.797Z,7.44
2019-05-14T05:36:48.753Z,7.49
2019-05-14T05:37:49.173Z,7.44
2019-05-14T05:38:49.349Z,7.57
2019-05-14T05:39:49.184Z,7.54
2019-05-14T05:40:48.782Z,7.50
2019-05-14T05:41:49.307Z,7.42
2019-05-14T05:42:49.096Z,7.37
2019-05-14T05:43:48.698Z,7.42
2019-05-14T05:44:48.598Z,7.46
2019-05-14T05:45:48.720Z,7.50
2019-05-14T05:46:49.399Z,7.39
2019-05-14T05:47:57.939Z,7.46
2019-05-14T05:48:49.562Z,7.52
2019-05-14T05:49:48.905Z,7.46
2019-05-14T05:50:48.681Z,7.55
2019-05-14T05:51:48.644Z,7.64
2019-05-14T05:52:49.850Z,7.61
2019-05-14T05:53:48.655Z,7.55
2019-05-14T05:54:49.057Z,7.60
2019-05-14T05:55:48.619Z,7.62
2019-05-14T05:56:48.469Z,7.54
2019-05-14T05:57:49.209Z,7.64
2019-05-14T05:58:49.129Z,7.62
2019-05-14T05:59:48.774Z,7.54
2019-05-14T06:00:49.726Z,7.58
2019-05-14T06:01:50.186Z,7.54
2019-05-14T06:02:49.006Z,7.49
2019-05-14T06:03:49.189Z,7.55
2019-05-14T06:04:48.326Z,7.58
2019-05-14T06:05:49.270Z,7.54
2019-05-14T06:06:48.409Z,7.57
2019-05-14T06:07:48.394Z,7.61
2019-05-14T06:08:49.066Z,7.64
2019-05-14T06:09:48.514Z,7.52
2019-05-14T06:10:49.041Z,7.68
2019-05-14T06:11:48.933Z,7.57
2019-05-14T06:12:49.120Z,7.57
2019-05-14T06:13:48.632Z,7.57
2019-05-14T06:14:48.755Z,7.66
2019-05-14T06:15:51.918Z,7.68
2019-05-14T06:16:48.832Z,7.76
2019-05-14T06:17:49.238Z,7.64
2019-05-14T06:18:48.590Z,7.69
2019-05-14T06:19:48.739Z,7.77
2019-05-14T06:20:49.445Z,7.74
2019-05-14T06:21:49.098Z,7.84
2019-05-14T06:22:48.924Z,7.92
2019-05-14T06:23:49.092Z,7.80
2019-05-14T06:24:48.693Z,7.64
2019-05-14T06:25:49.076Z,7.71
2019-05-14T06:26:49.053Z,7.83
2019-05-14T06:27:48.599Z,7.71
2019-05-14T06:28:49.187Z,7.81
2019-05-14T06:29:48.989Z,7.78
2019-05-14T06:30:48.500Z,7.76
2019-05-14T06:31:49.557Z,7.73
2019-05-14T06:32:48.728Z,7.88
2019-05-14T06:33:48.837Z,7.88
2019-05-14T06:34:48.838Z,7.94
2019-05-14T06:35:48.610Z,7.94
2019-05-14T06:36:48.807Z,7.96
2019-05-14T06:37:48.970Z,8.02
2019-05-14T06:38:49.449Z,8.05
2019-05-14T06:39:48.543Z,8.02
2019-05-14T06:40:48.934Z,7.96
2019-05-14T06:41:49.031Z,7.96
2019-05-14T06:42:48.618Z,8.05
2019-05-14T06:43:48.672Z,8.06
2019-05-14T06:44:49.258Z,8.13
2019-05-14T06:45:49.555Z,8.16
2019-05-14T06:46:48.699Z,8.13
2019-05-14T06:47:48.775Z,8.20
2019-05-14T06:48:48.537Z,8.14
2019-05-14T06:49:48.805Z,8.10
2019-05-14T06:50:50.202Z,8.20
2019-05-14T06:51:48.921Z,8.28
2019-05-14T06:52:49.194Z,8.34
2019-05-14T06:53:49.772Z,8.42
2019-05-14T06:54:49.609Z,8.42
2019-05-14T06:55:48.377Z,8.52
2019-05-14T06:56:48.837Z,8.42
2019-05-14T06:57:48.115Z,8.44
2019-05-14T06:58:49.052Z,8.57
2019-05-14T06:59:48.427Z,8.55
2019-05-14T07:00:49.535Z,8.57
2019-05-14T07:01:48.924Z,8.68
2019-05-14T07:02:49.138Z,8.63
2019-05-14T07:03:49.016Z,8.67
2019-05-14T07:04:48.411Z,8.71
2019-05-14T07:05:49.320Z,8.72
2019-05-14T07:06:48.484Z,8.85
2019-05-14T07:07:49.263Z,8.88
2019-05-14T07:08:48.693Z,8.89
2019-05-14T07:09:58.194Z,8.95
2019-05-14T07:10:48.752Z,8.98
2019-05-14T07:11:49.106Z,8.96
2019-05-14T07:12:49.871Z,9.08
2019-05-14T07:13:49.177Z,9.15
2019-05-14T07:14:48.136Z,9.18
2019-05-14T07:15:48.870Z,9.27
2019-05-14T07:16:48.550Z,9.18
2019-05-14T07:17:48.813Z,9.23
2019-05-14T07:18:52.746Z,9.30
2019-05-14T07:19:49.171Z,9.24
2019-05-14T07:20:48.513Z,9.23
2019-05-14T07:21:49.168Z,9.26
2019-05-14T07:22:48.315Z,9.26
2019-05-14T07:23:48.893Z,9.24
2019-05-14T07:24:49.597Z,9.32
2019-05-14T07:25:48.276Z,9.34
2019-05-14T07:26:49.388Z,9.41
2019-05-14T07:27:48.976Z,9.40
2019-05-14T07:28:48.829Z,9.54
2019-05-14T07:29:49.232Z,9.51
2019-05-14T07:30:48.552Z,9.55
2019-05-14T07:31:48.949Z,9.50
2019-05-14T07:32:48.453Z,9.44
2019-05-14T07:33:49.208Z,9.40
2019-05-14T07:34:48.209Z,9.48
2019-05-14T07:35:48.851Z,9.57
2019-05-14T07:36:49.081Z,9.50
2019-05-14T07:37:48.901Z,9.52
2019-05-14T07:38:48.961Z,9.59
2019-05-14T07:39:48.784Z,9.55
2019-05-14T07:40:49.464Z,9.65
2019-05-14T07:41:48.310Z,9.67
2019-05-14T07:42:48.756Z,9.81
2019-05-14T07:43:48.307Z,9.88
2019-05-14T07:44:58.886Z,10.05
2019-05-14T07:45:49.152Z,10.03
2019-05-14T07:46:48.313Z,9.99
2019-05-14T07:47:49.323Z,10.01
2019-05-14T07:49:03.472Z,10.09
2019-05-14T07:49:48.940Z,10.10
2019-05-14T07:50:51.247Z,10.12
2019-05-14T07:51:48.141Z,10.16
2019-05-14T07:52:49.791Z,10.06
2019-05-14T07:53:48.783Z,10.01
2019-05-14T07:54:48.174Z,10.06
2019-05-14T07:55:49.222Z,10.08
2019-05-14T07:56:50.932Z,10.09
2019-05-14T07:57:48.317Z,10.20
2019-05-14T07:58:49.183Z,10.20
2019-05-14T07:59:48.423Z,10.21
2019-05-14T08:00:49.132Z,10.28
2019-05-14T08:01:49.085Z,10.31
2019-05-14T08:02:49.139Z,10.41
2019-05-14T08:03:48.810Z,10.28
2019-05-14T08:04:48.733Z,10.41
2019-05-14T08:05:48.300Z,10.35
2019-05-14T08:06:48.738Z,10.43
2019-05-14T08:07:48.133Z,10.62
2019-05-14T08:08:49.265Z,10.58
2019-05-14T08:09:47.967Z,10.54
2019-05-14T08:10:48.671Z,10.46
2019-05-14T08:11:49.160Z,10.42
2019-05-14T08:12:48.534Z,10.60
2019-05-14T08:13:55.491Z,10.62
2019-05-14T08:15:09.488Z,10.45
2019-05-14T08:15:49.049Z,10.54
2019-05-14T08:17:09.472Z,10.55
2019-05-14T08:17:48.286Z,10.68
2019-05-14T08:18:48.787Z,10.75
2019-05-14T08:19:48.561Z,10.85
2019-05-14T08:20:48.672Z,10.82
2019-05-14T08:21:48.121Z,10.85
2019-05-14T08:22:49.011Z,10.80
2019-05-14T08:23:48.095Z,10.75
2019-05-14T08:24:48.910Z,10.87
2019-05-14T08:25:48.155Z,10.93
2019-05-14T08:26:48.681Z,11.09
2019-05-14T08:27:48.225Z,11.19
2019-05-14T08:28:48.885Z,11.23
2019-05-14T08:29:48.638Z,11.22
2019-05-14T08:30:48.932Z,11.27
2019-05-14T08:31:48.843Z,11.28
2019-05-14T08:32:48.838Z,11.22
2019-05-14T08:33:48.810Z,11.46
2019-05-14T08:34:47.980Z,11.41
2019-05-14T08:35:48.792Z,11.56
2019-05-14T08:36:48.308Z,11.49
2019-05-14T08:38:07.691Z,11.48
2019-05-14T08:38:50.135Z,11.67
2019-05-14T08:39:48.665Z,11.84
2019-05-14T08:40:48.683Z,11.93
2019-05-14T08:41:58.531Z,11.96
2019-05-14T08:42:52.906Z,11.89
2019-05-14T08:43:48.705Z,11.91
2019-05-14T08:44:50.910Z,11.99
2019-05-14T08:45:48.799Z,11.99
2019-05-14T08:46:48.707Z,12.05
2019-05-14T08:47:48.309Z,11.97
2019-05-14T08:48:49.280Z,11.88
2019-05-14T08:49:50.479Z,11.95
2019-05-14T08:50:48.114Z,11.84
2019-05-14T08:51:49.537Z,11.80
2019-05-14T08:52:48.345Z,11.84
2019-05-14T08:53:49.738Z,11.96
2019-05-14T08:54:46.456Z,11.93
2019-05-14T08:55:48.626Z,12.03
2019-05-14T08:56:49.023Z,11.97
2019-05-14T08:57:48.659Z,12.08
2019-05-14T08:58:49.113Z,12.08
2019-05-14T08:59:48.641Z,12.04
2019-05-14T09:00:48.290Z,12.23
2019-05-14T09:01:58.494Z,12.15
2019-05-14T09:02:48.590Z,12.14
2019-05-14T09:03:48.862Z,12.08
2019-05-14T09:04:52.686Z,12.11
2019-05-14T09:05:49.279Z,12.10
2019-05-14T09:06:48.828Z,12.23
2019-05-14T09:07:48.861Z,12.22
2019-05-14T09:08:46.313Z,12.32
2019-05-14T09:09:48.641Z,12.50
2019-05-14T09:10:49.440Z,12.47
2019-05-14T09:11:50.044Z,12.47
2019-05-14T09:12:46.222Z,12.47
2019-05-14T09:13:48.874Z,12.51
2019-05-14T09:14:48.317Z,12.66
2019-05-14T09:15:48.721Z,12.63
2019-05-14T09:16:50.510Z,12.55
2019-05-14T09:17:48.513Z,12.46
2019-05-14T09:18:46.183Z,12.50
2019-05-14T09:20:00.990Z,12.51
2019-05-14T09:20:48.785Z,12.63
2019-05-14T09:21:46.164Z,12.72
2019-05-14T09:22:48.818Z,12.79
2019-05-14T09:23:48.186Z,12.93
2019-05-14T09:24:48.871Z,12.86
2019-05-14T09:25:49.295Z,12.98
2019-05-14T09:26:48.366Z,13.04
2019-05-14T09:27:46.095Z,12.90
2019-05-14T09:28:48.009Z,12.87
2019-05-14T09:29:48.290Z,12.96
2019-05-14T09:30:48.567Z,12.98
2019-05-14T09:31:46.012Z,13.05
2019-05-14T09:32:48.956Z,13.11
2019-05-14T09:33:46.001Z,13.17
2019-05-14T09:34:48.585Z,13.16
2019-05-14T09:35:45.953Z,13.23
2019-05-14T09:36:48.717Z,13.23
2019-05-14T09:37:51.036Z,13.29
2019-05-14T09:38:49.091Z,13.38
2019-05-14T09:39:48.847Z,13.26
2019-05-14T09:40:48.695Z,13.42
2019-05-14T09:41:48.033Z,13.39
2019-05-14T09:42:45.878Z,13.49
2019-05-14T09:43:48.403Z,13.61
2019-05-14T09:44:45.978Z,13.68
2019-05-14T09:45:48.013Z,13.71
2019-05-14T09:46:46.810Z,13.64
2019-05-14T09:47:50.296Z,13.83
2019-05-14T09:48:45.851Z,13.97
2019-05-14T09:49:45.816Z,13.94
2019-05-14T09:50:45.786Z,13.96
2019-05-14T09:51:45.800Z,14.04
2019-05-14T09:52:45.780Z,14.15
2019-05-14T09:53:45.846Z,14.21
2019-05-14T09:54:45.785Z,14.37
2019-05-14T09:55:45.786Z,14.66
2019-05-14T09:56:48.367Z,14.66
2019-05-14T09:57:45.760Z,14.64
2019-05-14T09:58:45.739Z,14.58
2019-05-14T09:59:47.816Z,14.64
2019-05-14T10:00:48.349Z,14.71
2019-05-14T10:01:45.666Z,14.95
2019-05-14T10:02:48.878Z,15.17
2019-05-14T10:03:45.751Z,15.45
2019-05-14T10:04:48.695Z,15.54
2019-05-14T10:05:45.668Z,15.66
2019-05-14T10:06:45.601Z,15.68
2019-05-14T10:07:45.649Z,15.80
2019-05-14T10:08:45.580Z,15.93
2019-05-14T10:09:45.656Z,16.13
2019-05-14T10:10:45.565Z,16.26
2019-05-14T10:11:45.638Z,16.59
2019-05-14T10:12:53.858Z,16.49
2019-05-14T10:13:48.370Z,16.28
2019-05-14T10:14:45.631Z,16.21
2019-05-14T10:15:45.569Z,16.09
2019-05-14T10:16:45.545Z,16.24
2019-05-14T10:17:45.737Z,16.44
2019-05-14T10:18:45.492Z,16.49
2019-05-14T10:19:45.860Z,16.42
2019-05-14T10:20:48.571Z,16.26
2019-05-14T10:21:45.564Z,16.02
2019-05-14T10:22:48.097Z,15.87
2019-05-14T10:23:45.408Z,15.85
2019-05-14T10:24:45.502Z,15.77
2019-05-14T10:25:45.452Z,15.93
2019-05-14T10:26:48.272Z,16.21
2019-05-14T10:27:45.417Z,16.46
2019-05-14T10:28:45.426Z,16.55
2019-05-14T10:29:45.508Z,16.69
2019-05-14T10:30:48.910Z,16.67
2019-05-14T10:31:45.372Z,16.44
2019-05-14T10:32:45.339Z,16.29
2019-05-14T10:33:45.357Z,16.52
2019-05-14T10:34:45.328Z,16.82
2019-05-14T10:35:45.301Z,16.94
2019-05-14T10:36:45.316Z,17.16
2019-05-14T10:37:45.836Z,17.27
2019-05-14T10:38:45.284Z,17.13
2019-05-14T10:39:45.258Z,16.88
2019-05-14T10:40:45.225Z,16.90
2019-05-14T10:41:45.360Z,16.84
2019-05-14T10:42:45.213Z,16.58
2019-05-14T10:43:45.218Z,16.49
2019-05-14T10:44:45.181Z,16.64
2019-05-14T10:45:45.204Z,16.95
2019-05-14T10:46:45.163Z,17.24
2019-05-14T10:47:45.185Z,17.25
2019-05-14T10:48:45.147Z,17.39
2019-05-14T10:49:45.120Z,17.62
2019-05-14T10:50:56.211Z,17.72
2019-05-14T10:51:47.980Z,17.50
2019-05-14T10:52:45.137Z,17.59
2019-05-14T10:53:45.175Z,17.83
2019-05-14T10:54:55.260Z,17.91
2019-05-14T10:55:46.045Z,17.75
2019-05-14T10:56:45.119Z,17.66
2019-05-14T10:57:45.078Z,17.52
2019-05-14T10:58:45.033Z,17.43
2019-05-14T10:59:45.033Z,17.30
2019-05-14T11:00:45.021Z,17.12
2019-05-14T11:01:45.088Z,16.83
2019-05-14T11:02:44.973Z,16.61
2019-05-14T11:03:45.007Z,16.44
2019-05-14T11:04:45.011Z,16.47
2019-05-14T11:05:44.937Z,16.54
2019-05-14T11:06:44.981Z,16.54
2019-05-14T11:07:44.941Z,16.57
2019-05-14T11:08:45.069Z,16.46
2019-05-14T11:09:44.921Z,16.67
2019-05-14T11:10:44.901Z,17.01
2019-05-14T11:11:44.905Z,17.30
2019-05-14T11:12:44.954Z,17.10
2019-05-14T11:13:44.856Z,17.19
2019-05-14T11:14:44.919Z,17.10
2019-05-14T11:15:44.879Z,17.31
2019-05-14T11:16:44.957Z,17.30
2019-05-14T11:17:44.820Z,16.87
2019-05-14T11:18:44.859Z,16.44
2019-05-14T11:19:44.789Z,16.16
2019-05-14T11:20:44.764Z,15.88
2019-05-14T11:21:44.803Z,15.99
2019-05-14T11:22:44.758Z,16.25
2019-05-14T11:23:44.754Z,16.40
2019-05-14T11:24:44.829Z,16.51
2019-05-14T11:25:44.790Z,16.49
2019-05-14T11:26:44.747Z,16.47
2019-05-14T11:27:44.750Z,16.52
2019-05-14T11:28:44.731Z,16.58
2019-05-14T11:29:44.940Z,16.58
2019-05-14T11:30:44.657Z,16.49
2019-05-14T11:31:44.746Z,16.47
2019-05-14T11:32:44.708Z,16.49
2019-05-14T11:33:44.707Z,16.57
2019-05-14T11:34:44.610Z,16.92
2019-05-14T11:35:44.746Z,17.10
2019-05-14T11:36:44.604Z,16.91
2019-05-14T11:37:44.587Z,17.07
2019-05-14T11:38:44.623Z,17.19
2019-05-14T11:39:44.574Z,17.07
2019-05-14T11:40:44.581Z,17.20
2019-05-14T11:41:44.966Z,17.52
2019-05-14T11:42:44.543Z,17.47
2019-05-14T11:43:44.508Z,17.54
2019-05-14T11:44:44.509Z,17.54
2019-05-14T11:45:44.502Z,17.71
2019-05-14T11:46:56.368Z,17.78
2019-05-14T11:47:45.661Z,17.93
2019-05-14T11:48:44.476Z,18.01
2019-05-14T11:49:44.472Z,17.65
2019-05-14T11:50:44.441Z,17.50
2019-05-14T11:52:00.848Z,17.45
2019-05-14T11:52:45.428Z,17.34
2019-05-14T11:53:44.407Z,17.63
2019-05-14T11:54:44.391Z,17.63
2019-05-14T11:55:45.330Z,17.47
2019-05-14T11:56:44.375Z,17.49
2019-05-14T11:57:44.469Z,17.30
2019-05-14T11:58:44.344Z,17.41
2019-05-14T11:59:44.330Z,17.63
2019-05-14T12:00:44.335Z,17.49
2019-05-14T12:01:44.309Z,17.46
2019-05-14T12:02:44.295Z,17.47
2019-05-14T12:03:44.382Z,17.68
2019-05-14T12:04:44.332Z,18.02
2019-05-14T12:05:44.275Z,18.13
2019-05-14T12:06:44.270Z,18.26
2019-05-14T12:07:44.242Z,18.03
2019-05-14T12:08:44.259Z,17.90
2019-05-14T12:09:44.312Z,17.76
2019-05-14T12:10:44.219Z,17.68
2019-05-14T12:11:44.200Z,17.84
2019-05-14T12:12:44.251Z,18.01
2019-05-14T12:13:44.193Z,18.46
2019-05-14T12:14:44.221Z,18.82
2019-05-14T12:15:44.160Z,18.98
2019-05-14T12:16:44.205Z,19.04
2019-05-14T12:17:44.231Z,18.83
2019-05-14T12:18:44.127Z,18.43
2019-05-14T12:19:44.337Z,18.39
2019-05-14T12:20:44.100Z,18.39
2019-05-14T12:21:58.896Z,18.58
2019-05-14T12:22:45.125Z,18.56
2019-05-14T12:23:44.097Z,18.45
2019-05-14T12:24:44.053Z,18.63
2019-05-14T12:25:44.090Z,18.52
2019-05-14T12:26:44.044Z,18.36
2019-05-14T12:27:44.077Z,18.36
2019-05-14T12:28:44.026Z,18.36
2019-05-14T12:29:44.005Z,18.61
2019-05-14T12:30:43.991Z,18.79
2019-05-14T12:32:05.004Z,18.86
2019-05-14T12:32:43.982Z,19.07
2019-05-14T12:33:44.048Z,19.08
2019-05-14T12:34:43.947Z,18.82
2019-05-14T12:35:43.952Z,18.68
2019-05-14T12:36:43.961Z,18.51
2019-05-14T12:37:43.976Z,18.58
2019-05-14T12:38:43.913Z,18.48
2019-05-14T12:39:43.935Z,18.56
2019-05-14T12:40:43.950Z,18.58
2019-05-14T12:41:43.880Z,18.70
2019-05-14T12:42:43.943Z,18.81
2019-05-14T12:43:44.150Z,18.83
2019-05-14T12:44:43.859Z,19.19
2019-05-14T12:45:43.828Z,19.27
2019-05-14T12:46:43.811Z,19.19
2019-05-14T12:47:43.878Z,19.01
2019-05-14T12:48:43.801Z,19.00
2019-05-14T12:49:43.790Z,19.16
2019-05-14T12:50:43.771Z,19.23
2019-05-14T12:51:43.757Z,19.30
2019-05-14T12:52:43.813Z,19.07
2019-05-14T12:53:43.799Z,18.66
2019-05-14T12:54:44.086Z,18.42
2019-05-14T12:55:43.757Z,18.23
2019-05-14T12:56:43.707Z,18.01
2019-05-14T12:57:43.830Z,17.71
2019-05-14T12:58:45.850Z,17.79
2019-05-14T12:59:43.682Z,17.90
2019-05-14T13:00:43.691Z,17.93
2019-05-14T13:01:43.675Z,18.08
2019-05-14T13:02:43.642Z,18.17
2019-05-14T13:03:43.676Z,18.57
2019-05-14T13:04:43.646Z,18.63
2019-05-14T13:05:43.623Z,19.09
2019-05-14T13:06:43.632Z,19.57
2019-05-14T13:07:43.585Z,20.17